Time;durP1;ratioP1;P1;durP2;ratioP2;P2;SDS_P1;SDS_P2;PMS_P1;PMS_P2;Temp;Humidity;BMP_temperature;BMP_pressure;BME280_temperature;BME280_humidity;BME280_pressure;Samples;Min_cycle;Max_cycle;Signal;HPM_P1;HPM_P2
2023/06/24 00:00:11;;;;;;;4.95;4.00;;;;;;;15.28;100.00;96749.69;1042888;28;20021;-77
2023/06/24 00:00:42;;;;;;;5.50;3.88;;;;;;;15.25;100.00;96750.22;1039134;28;20048;-76
2023/06/24 00:01:13;;;;;;;6.45;3.83;;;;;;;15.23;100.00;96741.00;1038100;28;20029;-76
2023/06/24 00:01:43;;;;;;;5.88;3.53;;;;;;;15.21;100.00;96729.88;1043406;28;20028;-76
2023/06/24 00:02:14;;;;;;;5.40;3.67;;;;;;;15.27;100.00;96742.81;1039353;28;20025;-77
2023/06/24 00:02:45;;;;;;;5.13;3.80;;;;;;;15.19;100.00;96732.81;1035161;28;20052;-76
2023/06/24 00:03:17;;;;;;;4.40;3.47;;;;;;;15.16;100.00;96737.84;1030486;28;20101;-75
2023/06/24 00:03:48;;;;;;;5.40;3.63;;;;;;;15.23;100.00;96739.13;1034470;28;20061;-75
2023/06/24 00:04:19;;;;;;;4.30;3.60;;;;;;;15.17;100.00;96731.47;1049047;28;20024;-75
2023/06/24 00:04:50;;;;;;;5.13;3.50;;;;;;;15.17;100.00;96728.84;1038651;28;20507;-76
2023/06/24 00:05:21;;;;;;;8.05;3.53;;;;;;;15.22;100.00;96742.81;1030385;28;20053;-76
2023/06/24 00:05:52;;;;;;;4.00;3.55;;;;;;;15.19;100.00;96735.44;1030368;28;20030;-77
2023/06/24 00:06:25;;;;;;;5.03;3.88;;;;;;;15.13;100.00;96731.22;1038890;28;20097;-75
2023/06/24 00:06:59;;;;;;;6.10;4.30;;;;;;;15.18;100.00;96743.63;1039656;28;20634;-77
2023/06/24 00:07:30;;;;;;;4.00;3.35;;;;;;;15.02;100.00;96722.53;1050754;28;20028;-76
2023/06/24 00:08:02;;;;;;;5.00;4.00;;;;;;;15.17;100.00;96742.06;1038505;28;20414;-75
2023/06/24 00:08:34;;;;;;;5.78;3.80;;;;;;;15.18;100.00;96747.06;1030390;28;20081;-76
2023/06/24 00:09:04;;;;;;;6.63;3.97;;;;;;;15.17;100.00;96737.56;1030377;28;20523;-75
2023/06/24 00:09:35;;;;;;;7.18;3.95;;;;;;;15.18;100.00;96741.78;1042493;28;20024;-74
2023/06/24 00:10:06;;;;;;;6.72;4.00;;;;;;;15.18;100.00;96741.78;1038476;28;20052;-76
2023/06/24 00:10:37;;;;;;;6.15;4.25;;;;;;;15.20;100.00;96744.97;1038680;28;20033;-75
2023/06/24 00:11:07;;;;;;;5.18;4.00;;;;;;;15.22;100.00;96737.53;1035549;28;20029;-76
2023/06/24 00:11:38;;;;;;;6.38;4.32;;;;;;;15.20;100.00;96737.03;1038785;28;20048;-75
2023/06/24 00:12:08;;;;;;;5.65;4.15;;;;;;;15.18;100.00;96736.50;1046757;28;20039;-76
2023/06/24 00:12:41;;;;;;;4.60;4.03;;;;;;;15.16;100.00;96737.84;1042579;28;20451;-75
2023/06/24 00:13:11;;;;;;;5.90;4.07;;;;;;;15.14;100.00;96730.16;1042689;28;20776;-77
2023/06/24 00:13:42;;;;;;;5.40;4.13;;;;;;;15.20;100.00;96744.16;1047161;28;20066;-76
2023/06/24 00:14:14;;;;;;;5.53;3.90;;;;;;;15.16;100.00;96746.56;1050692;28;20038;-76
2023/06/24 00:14:46;;;;;;;5.70;3.95;;;;;;;15.17;100.00;96740.19;1046054;28;20024;-77
2023/06/24 00:15:18;;;;;;;5.13;3.90;;;;;;;15.19;100.00;96748.66;1038473;28;20021;-76
2023/06/24 00:15:48;;;;;;;4.78;3.50;;;;;;;15.20;100.00;96744.97;1035295;28;20097;-76
2023/06/24 00:16:26;;;;;;;5.20;4.15;;;;;;;15.20;100.00;96744.97;1031885;28;20081;-74
2023/06/24 00:16:56;;;;;;;5.47;4.10;;;;;;;15.16;100.00;96737.84;1031702;28;20125;-74
2023/06/24 00:17:28;;;;;;;4.75;3.70;;;;;;;15.19;100.00;96738.09;1042636;28;20032;-75
2023/06/24 00:18:05;;;;;;;4.88;3.70;;;;;;;15.23;100.00;96739.13;1041512;28;20464;-75
2023/06/24 00:18:36;;;;;;;5.60;3.80;;;;;;;15.21;100.00;96733.31;1043787;28;20059;-76
2023/06/24 00:19:08;;;;;;;5.45;4.20;;;;;;;15.27;100.00;96739.41;1042625;28;20091;-77
2023/06/24 00:19:38;;;;;;;12.65;4.25;;;;;;;15.24;100.00;96735.44;1043870;28;20076;-75
2023/06/24 00:20:10;;;;;;;11.27;5.22;;;;;;;15.24;100.00;96740.72;1042534;28;20033;-74
2023/06/24 00:20:43;;;;;;;8.45;4.03;;;;;;;15.24;100.00;96740.72;1047365;28;20571;-77
2023/06/24 00:21:16;;;;;;;6.10;4.30;;;;;;;15.23;100.00;96733.06;1050394;28;20123;-76
2023/06/24 00:21:48;;;;;;;5.88;4.60;;;;;;;15.22;100.00;96726.97;1043579;28;20055;-75
2023/06/24 00:22:18;;;;;;;7.43;4.30;;;;;;;15.26;100.00;96738.59;1041615;28;20017;-75
2023/06/24 00:22:49;;;;;;;7.18;4.85;;;;;;;15.28;100.00;96740.97;1038703;28;20013;-76
2023/06/24 00:23:24;;;;;;;5.60;4.20;;;;;;;15.25;100.00;96739.66;1039319;28;20025;-76
2023/06/24 00:23:58;;;;;;;6.22;4.13;;;;;;;15.29;100.00;96738.06;1033580;28;20168;-76
2023/06/24 00:24:29;;;;;;;5.78;4.00;;;;;;;15.22;100.00;96736.75;1032027;28;20121;-76
2023/06/24 00:25:00;;;;;;;4.05;3.42;;;;;;;15.20;100.00;96739.66;1030284;28;20504;-76
2023/06/24 00:25:30;;;;;;;5.35;4.13;;;;;;;15.28;100.00;96743.63;1036161;28;20022;-77
2023/06/24 00:26:01;;;;;;;7.00;4.20;;;;;;;15.24;100.00;96739.94;1042917;28;20017;-76
2023/06/24 00:26:31;;;;;;;4.60;3.85;;;;;;;15.22;100.00;96737.53;1042890;28;20059;-76
2023/06/24 00:27:02;;;;;;;8.90;5.03;;;;;;;15.26;100.00;96741.25;1031451;28;20018;-73
2023/06/24 00:27:33;;;;;;;6.10;4.10;;;;;;;15.24;100.00;96735.44;1032826;28;20022;-74
2023/06/24 00:28:03;;;;;;;5.63;3.92;;;;;;;15.23;100.00;96739.13;1029359;28;20022;-74
2023/06/24 00:28:33;;;;;;;4.25;3.65;;;;;;;15.25;100.00;96744.94;1030016;28;20026;-75
2023/06/24 00:29:04;;;;;;;4.68;4.05;;;;;;;15.24;100.00;96745.22;1030681;28;20029;-76
2023/06/24 00:29:34;;;;;;;5.60;3.92;;;;;;;15.20;100.00;96747.59;1030409;28;20609;-76
2023/06/24 00:30:05;;;;;;;5.10;3.80;;;;;;;15.25;100.00;96746.78;1031527;28;20027;-76
2023/06/24 00:30:36;;;;;;;4.55;3.70;;;;;;;15.25;100.00;96755.50;1042951;28;20024;-75
2023/06/24 00:31:06;;;;;;;6.03;4.22;;;;;;;15.20;100.00;96744.97;1034369;28;20036;-75
2023/06/24 00:31:37;;;;;;;6.70;3.90;;;;;;;15.26;100.00;96754.47;1030716;28;20529;-75
2023/06/24 00:32:08;;;;;;;5.28;3.97;;;;;;;15.21;100.00;96746.53;1037776;28;20021;-76
2023/06/24 00:32:38;;;;;;;6.03;3.80;;;;;;;15.27;100.00;96753.41;1038536;28;20391;-73
2023/06/24 00:33:09;;;;;;;6.97;4.20;;;;;;;15.22;100.00;96742.81;1034525;28;20445;-74
2023/06/24 00:33:39;;;;;;;6.10;4.13;;;;;;;15.26;100.00;96746.53;1034372;28;20091;-76
2023/06/24 00:34:09;;;;;;;5.22;3.70;;;;;;;15.30;100.00;96754.72;1038464;28;20031;-75
2023/06/24 00:34:43;;;;;;;5.43;3.97;;;;;;;15.24;100.00;96739.94;1038583;28;20025;-75
2023/06/24 00:35:14;;;;;;;5.35;4.00;;;;;;;15.30;100.00;96749.44;1035729;28;20480;-75
2023/06/24 00:35:44;;;;;;;6.53;3.90;;;;;;;15.24;100.00;96735.44;1038527;28;20017;-75
2023/06/24 00:36:15;;;;;;;4.80;4.10;;;;;;;15.26;100.00;96743.91;1038490;28;20029;-75
2023/06/24 00:36:46;;;;;;;4.40;3.60;;;;;;;15.30;100.00;96744.94;1038548;28;20026;-76
2023/06/24 00:37:17;;;;;;;6.65;4.38;;;;;;;15.30;100.00;96750.22;1042290;28;20446;-76
2023/06/24 00:37:47;;;;;;;7.82;4.47;;;;;;;15.29;100.00;96748.66;1038373;28;20021;-76
2023/06/24 00:38:18;;;;;;;4.97;4.05;;;;;;;15.31;100.00;96751.81;1038317;28;20475;-75
2023/06/24 00:38:48;;;;;;;6.55;4.25;;;;;;;15.25;100.00;96737.00;1036727;28;20018;-76
2023/06/24 00:39:19;;;;;;;5.63;4.28;;;;;;;15.30;100.00;96747.59;1038575;28;20068;-76
2023/06/24 00:39:49;;;;;;;7.10;4.22;;;;;;;15.32;100.00;96745.47;1038590;28;20025;-77
2023/06/24 00:40:20;;;;;;;5.38;3.92;;;;;;;15.31;100.00;96746.53;1034218;28;20037;-75
2023/06/24 00:40:50;;;;;;;8.30;4.47;;;;;;;15.32;100.00;96742.84;1034752;28;20029;-75
2023/06/24 00:41:21;;;;;;;4.93;3.90;;;;;;;15.24;100.00;96729.34;1029764;28;20030;-74
2023/06/24 00:41:51;;;;;;;6.03;4.15;;;;;;;15.35;100.00;96748.63;1030381;28;20071;-77
2023/06/24 00:42:21;;;;;;;6.65;4.40;;;;;;;15.30;100.00;96739.66;1041850;28;20025;-75
2023/06/24 00:42:52;;;;;;;7.63;4.38;;;;;;;15.30;100.00;96739.66;1038519;28;20040;-75
2023/06/24 00:43:22;;;;;;;5.75;3.72;;;;;;;15.32;100.00;96750.78;1038547;28;20048;-76
2023/06/24 00:43:53;;;;;;;6.57;4.25;;;;;;;15.26;100.00;96733.31;1036576;28;20120;-77
2023/06/24 00:44:23;;;;;;;6.00;4.10;;;;;;;15.33;100.00;96748.91;1038397;28;20017;-76
2023/06/24 00:44:54;;;;;;;5.70;4.20;;;;;;;15.30;100.00;96736.22;1038559;28;20021;-76
2023/06/24 00:45:24;;;;;;;7.18;4.22;;;;;;;15.33;100.00;96743.63;1042359;28;20115;-75
2023/06/24 00:45:56;;;;;;;5.53;4.13;;;;;;;15.26;100.00;96732.53;1034462;28;20504;-76
2023/06/24 00:46:27;;;;;;;6.75;4.22;;;;;;;15.18;100.00;96720.63;1034336;28;20516;-75
2023/06/24 00:46:58;;;;;;;6.57;4.90;;;;;;;15.33;100.00;96744.41;1042659;28;20588;-76
2023/06/24 00:47:30;;;;;;;6.55;3.75;;;;;;;15.35;100.00;96751.28;1046265;28;20028;-76
2023/06/24 00:48:02;;;;;;;5.30;3.80;;;;;;;15.30;100.00;96744.94;1046931;28;20441;-75
2023/06/24 00:48:33;;;;;;;6.00;4.25;;;;;;;15.35;100.00;96751.28;1050853;28;20539;-76
2023/06/24 00:49:03;;;;;;;7.82;4.10;;;;;;;15.29;100.00;96753.94;1046784;28;20037;-75
2023/06/24 00:49:34;;;;;;;5.82;3.80;;;;;;;15.33;100.00;96743.63;1042630;28;20033;-75
2023/06/24 00:50:05;;;;;;;5.22;3.65;;;;;;;15.33;100.00;96748.91;1042889;28;20852;-75
2023/06/24 00:50:37;;;;;;;6.40;4.00;;;;;;;15.32;100.00;96749.94;1040010;28;20451;-77
2023/06/24 00:51:07;;;;;;;5.70;3.78;;;;;;;15.33;100.00;96747.06;1038120;28;20398;-75
2023/06/24 00:51:40;;;;;;;5.30;4.18;;;;;;;15.25;100.00;96734.34;1038504;28;20036;-78
2023/06/24 00:52:15;;;;;;;6.57;4.20;;;;;;;15.31;100.00;96745.72;1042837;28;20020;-74
2023/06/24 00:52:45;;;;;;;5.22;4.15;;;;;;;15.33;100.00;96749.69;1038523;28;20037;-77
2023/06/24 00:53:17;;;;;;;5.63;4.10;;;;;;;15.32;100.00;96747.31;1034514;28;20373;-75
2023/06/24 00:53:47;;;;;;;4.60;3.50;;;;;;;15.33;100.00;96747.06;1030540;28;20026;-76
2023/06/24 00:54:18;;;;;;;4.80;3.45;;;;;;;15.14;100.00;96714.28;1042399;28;20490;-74
2023/06/24 00:54:48;;;;;;;6.68;3.97;;;;;;;15.37;100.00;96749.16;1039069;28;20376;-75
2023/06/24 00:55:22;;;;;;;4.95;3.80;;;;;;;15.29;100.00;96738.06;1042746;28;20100;-75
2023/06/24 00:55:54;;;;;;;5.57;4.15;;;;;;;15.29;100.00;96738.06;1038095;28;20411;-75
2023/06/24 00:56:31;;;;;;;4.28;3.63;;;;;;;15.31;100.00;96740.44;1038613;28;20037;-75
2023/06/24 00:57:02;;;;;;;5.03;4.18;;;;;;;15.39;100.00;96750.50;1030268;28;20088;-74
2023/06/24 00:57:32;;;;;;;5.07;4.00;;;;;;;15.37;100.00;96749.16;1038321;28;20724;-75
2023/06/24 00:58:03;;;;;;;4.97;3.50;;;;;;;15.34;100.00;96742.56;1038428;28;20115;-76
2023/06/24 00:58:34;;;;;;;4.47;3.70;;;;;;;15.35;100.00;96756.56;1038492;28;20025;-76
2023/06/24 00:59:04;;;;;;;5.68;4.22;;;;;;;15.35;100.00;96751.28;1035490;28;20041;-75
2023/06/24 00:59:35;;;;;;;4.45;3.53;;;;;;;15.35;100.00;96751.28;1034557;28;20387;-75
2023/06/24 01:00:09;;;;;;;4.57;3.95;;;;;;;15.36;100.00;96752.84;1042640;28;20057;-75
2023/06/24 01:00:40;;;;;;;6.15;4.25;;;;;;;15.36;100.00;96742.28;1042971;28;20393;-77
2023/06/24 01:01:11;;;;;;;5.28;3.55;;;;;;;15.37;100.00;96749.16;1041998;28;20119;-74
2023/06/24 01:01:42;;;;;;;5.38;4.10;;;;;;;15.35;100.00;96740.69;1035230;28;20010;-76
2023/06/24 01:02:12;;;;;;;5.38;4.15;;;;;;;15.35;100.00;96745.97;1043443;28;20052;-75
2023/06/24 01:02:43;;;;;;;6.03;4.32;;;;;;;15.33;100.00;96744.41;1047472;28;20017;-75
2023/06/24 01:03:13;;;;;;;5.60;3.75;;;;;;;15.39;100.00;96747.03;1043236;28;20051;-74
2023/06/24 01:03:44;;;;;;;4.93;3.60;;;;;;;15.32;100.00;96739.38;1027150;28;20026;-75
2023/06/24 01:04:16;;;;;;;5.80;4.68;;;;;;;15.38;100.00;96746.25;1036921;28;20025;-75
2023/06/24 01:04:47;;;;;;;4.95;3.65;;;;;;;15.36;100.00;96752.84;1038713;28;20022;-76
2023/06/24 01:05:17;;;;;;;5.88;4.10;;;;;;;15.35;100.00;96740.69;1031134;28;20423;-76
2023/06/24 01:05:48;;;;;;;5.38;3.95;;;;;;;15.35;100.00;96745.97;1031673;28;20022;-75
2023/06/24 01:06:18;;;;;;;6.80;4.40;;;;;;;15.34;100.00;96742.56;1039202;28;20014;-74
2023/06/24 01:06:49;;;;;;;5.20;3.80;;;;;;;15.36;100.00;96745.72;1039328;28;20029;-75
2023/06/24 01:07:19;;;;;;;4.40;3.30;;;;;;;15.40;100.00;96748.63;1051364;28;20413;-75
2023/06/24 01:07:54;;;;;;;5.88;3.53;;;;;;;15.37;100.00;96752.59;1039869;28;20025;-77
2023/06/24 01:08:25;;;;;;;5.40;4.00;;;;;;;15.35;100.00;96745.97;1027073;28;20022;-77
2023/06/24 01:09:00;;;;;;;3.67;3.28;;;;;;;15.35;100.00;96743.34;1031272;28;20480;-75
2023/06/24 01:09:30;;;;;;;4.32;3.50;;;;;;;15.38;100.00;96751.53;1038149;28;20032;-76
2023/06/24 01:10:00;;;;;;;6.55;4.10;;;;;;;15.40;100.00;96743.34;1031144;28;20660;-75
2023/06/24 01:10:31;;;;;;;5.00;3.78;;;;;;;15.36;100.00;96745.72;1039336;28;20021;-75
2023/06/24 01:11:01;;;;;;;6.18;4.38;;;;;;;15.28;100.00;96736.47;1038566;28;20495;-74
2023/06/24 01:11:32;;;;;;;5.70;3.90;;;;;;;15.30;100.00;96734.38;1035074;28;20124;-75
2023/06/24 01:12:03;;;;;;;4.78;3.78;;;;;;;15.33;100.00;96736.47;1039195;28;20072;-75
2023/06/24 01:12:34;;;;;;;6.82;3.95;;;;;;;15.30;100.00;96726.44;1039154;28;20021;-75
2023/06/24 01:13:04;;;;;;;5.68;3.85;;;;;;;15.35;100.00;96730.91;1039337;28;20026;-75
2023/06/24 01:13:34;;;;;;;4.85;3.53;;;;;;;15.33;100.00;96733.84;1045420;28;20371;-76
2023/06/24 01:14:05;;;;;;;7.07;3.83;;;;;;;15.34;100.00;96739.91;1041068;28;20021;-75
2023/06/24 01:14:35;;;;;;;5.25;3.70;;;;;;;15.31;100.00;96729.88;1034306;28;20078;-75
2023/06/24 01:15:07;;;;;;;5.20;3.88;;;;;;;15.35;100.00;96740.69;1037010;28;20018;-76
2023/06/24 01:15:37;;;;;;;7.10;3.35;;;;;;;15.30;100.00;96731.72;1036917;28;20020;-75
2023/06/24 01:16:10;;;;;;;4.72;3.67;;;;;;;15.30;100.00;96725.66;1041466;28;20021;-75
2023/06/24 01:17:05;;;;;;;5.38;3.72;;;;;;;15.31;100.00;96729.88;1035144;28;20029;-75
2023/06/24 01:17:47;;;;;;;6.32;3.70;;;;;;;15.35;100.00;96735.41;1024222;28;20035;-76
2023/06/24 01:18:27;;;;;;;4.82;3.92;;;;;;;15.35;100.00;96738.06;1042474;28;20573;-77
2023/06/24 01:19:00;;;;;;;5.82;3.75;;;;;;;15.35;100.00;96740.69;1049635;28;20016;-75
2023/06/24 01:20:10;;;;;;;4.15;3.72;;;;;;;15.31;100.00;96741.22;1047808;28;20032;-75
2023/06/24 01:20:49;;;;;;;5.60;3.45;;;;;;;15.29;100.00;96737.25;1045391;28;20039;-75
2023/06/24 01:21:32;;;;;;;4.32;3.45;;;;;;;15.30;100.00;96737.00;1045540;28;20055;-75
2023/06/24 01:22:29;;;;;;;4.20;3.60;;;;;;;15.29;100.00;96738.06;1039269;28;20208;-75
2023/06/24 01:23:06;;;;;;;5.82;3.72;;;;;;;15.25;100.00;96731.72;1043865;28;20444;-75
2023/06/24 01:23:57;;;;;;;6.03;4.10;;;;;;;15.22;100.00;96737.53;1047428;28;20745;-75
2023/06/24 01:25:12;;;;;;;4.97;3.70;;;;;;;15.16;100.00;96735.97;1043317;28;20076;-75
2023/06/24 01:25:54;;;;;;;4.78;3.65;;;;;;;15.14;100.00;96738.09;1026919;28;20054;-76
2023/06/24 01:26:42;;;;;;;7.05;4.20;;;;;;;15.13;100.00;96741.81;1046415;28;20032;-75
2023/06/24 01:27:15;;;;;;;7.00;3.60;;;;;;;15.11;100.00;96735.19;1043640;28;20035;-75
2023/06/24 01:27:57;;;;;;;4.85;3.80;;;;;;;15.05;100.00;96732.53;1043607;28;20029;-76
2023/06/24 01:28:33;;;;;;;6.93;4.32;;;;;;;15.08;100.00;96731.22;1041721;28;20034;-75
2023/06/24 01:29:27;;;;;;;4.55;3.40;;;;;;;15.07;100.00;96729.66;1036455;28;20033;-76
2023/06/24 01:30:15;;;;;;;5.45;4.07;;;;;;;15.01;100.00;96720.13;1039435;28;20029;-74
2023/06/24 01:31:17;;;;;;;5.25;4.18;;;;;;;15.05;100.00;96729.88;1040673;28;20410;-75
2023/06/24 01:31:51;;;;;;;5.57;3.95;;;;;;;15.03;100.00;96731.25;1029823;28;20047;-76
2023/06/24 01:32:35;;;;;;;5.25;3.90;;;;;;;15.03;100.00;96733.88;1026782;28;20034;-75
2023/06/24 01:33:08;;;;;;;4.43;3.63;;;;;;;15.02;100.00;96734.91;1036406;28;20033;-75
2023/06/24 01:33:48;;;;;;;6.40;4.03;;;;;;;14.99;100.00;96728.34;1041737;28;20071;-75
2023/06/24 01:34:33;;;;;;;5.25;4.35;;;;;;;14.98;100.00;96732.03;1035134;28;20115;-72
2023/06/24 01:35:09;;;;;;;9.18;4.10;;;;;;;14.94;100.00;96716.97;1043385;28;20033;-76
2023/06/24 01:35:40;;;;;;;6.00;4.45;;;;;;;14.94;100.00;96709.03;1039376;28;20044;-75
2023/06/24 01:36:11;;;;;;;7.32;4.88;;;;;;;14.95;100.00;96713.25;1035238;28;20120;-76
2023/06/24 01:36:44;;;;;;;5.60;3.85;;;;;;;14.93;100.00;96712.75;1031127;28;20018;-75
2023/06/24 01:37:17;;;;;;;5.25;3.97;;;;;;;14.94;100.00;96706.41;1039112;28;20112;-75
2023/06/24 01:37:52;;;;;;;6.15;3.88;;;;;;;14.98;100.00;96715.38;1043308;28;20084;-76
2023/06/24 01:38:26;;;;;;;4.57;3.90;;;;;;;14.98;100.00;96715.38;1030981;28;20520;-77
2023/06/24 01:39:08;;;;;;;6.22;4.35;;;;;;;14.96;100.00;96717.50;1042887;28;20017;-76
2023/06/24 01:40:08;;;;;;;5.88;4.40;;;;;;;14.90;100.00;96708.78;1035301;28;20033;-75
2023/06/24 01:40:42;;;;;;;5.35;4.00;;;;;;;14.88;100.00;96708.25;1044684;28;20032;-74
2023/06/24 01:41:13;;;;;;;5.50;4.10;;;;;;;14.88;100.00;96707.47;1040319;28;20021;-75
2023/06/24 01:41:47;;;;;;;5.55;4.10;;;;;;;14.90;100.00;96710.63;1039057;28;20018;-75
2023/06/24 01:42:17;;;;;;;5.15;3.90;;;;;;;14.90;100.00;96703.50;1039202;28;20163;-76
2023/06/24 01:42:48;;;;;;;5.30;4.10;;;;;;;14.93;100.00;96712.75;1043142;28;20126;-75
2023/06/24 01:43:21;;;;;;;7.13;4.50;;;;;;;14.88;100.00;96700.31;1035028;28;20053;-75
2023/06/24 01:43:52;;;;;;;6.70;3.90;;;;;;;14.97;100.00;96719.09;1035013;28;20432;-77
2023/06/24 01:44:22;;;;;;;5.72;4.47;;;;;;;14.92;100.00;96703.22;1034914;28;20103;-75
2023/06/24 01:44:53;;;;;;;5.93;4.22;;;;;;;14.91;100.00;96701.63;1035594;28;20600;-76
2023/06/24 01:45:27;;;;;;;5.28;4.20;;;;;;;14.89;100.00;96703.75;1031651;28;20048;-75
2023/06/24 01:45:58;;;;;;;4.82;3.90;;;;;;;14.94;100.00;96714.31;1031143;28;20065;-74
2023/06/24 01:46:29;;;;;;;7.32;4.40;;;;;;;14.90;100.00;96706.13;1035162;28;20586;-75
2023/06/24 01:46:59;;;;;;;4.70;4.20;;;;;;;14.95;100.00;96710.63;1039147;28;20047;-76
2023/06/24 01:47:30;;;;;;;5.90;4.13;;;;;;;14.97;100.00;96713.78;1035022;28;20446;-76
2023/06/24 01:48:03;;;;;;;6.25;4.30;;;;;;;14.92;100.00;96705.84;1039192;28;20021;-76
2023/06/24 01:48:35;;;;;;;7.68;4.75;;;;;;;14.95;100.00;96711.41;1043350;28;20037;-76
2023/06/24 01:49:06;;;;;;;8.07;4.68;;;;;;;14.96;100.00;96709.59;1043116;28;20016;-75
2023/06/24 01:49:39;;;;;;;10.55;4.53;;;;;;;14.97;100.00;96714.59;1035020;28;20030;-76
2023/06/24 01:50:10;;;;;;;5.40;4.15;;;;;;;14.91;100.00;96704.28;1043450;28;20113;-74
2023/06/24 01:50:50;;;;;;;5.05;4.00;;;;;;;14.95;100.00;96713.25;1045002;28;20044;-75
2023/06/24 01:51:21;;;;;;;5.95;4.43;;;;;;;14.94;100.00;96715.13;1034275;28;20026;-76
2023/06/24 01:51:51;;;;;;;7.57;4.93;;;;;;;14.90;100.00;96708.00;1035209;28;20037;-75
2023/06/24 01:52:22;;;;;;;5.53;4.25;;;;;;;14.88;100.00;96707.47;1041153;28;20467;-76
2023/06/24 01:52:53;;;;;;;8.57;4.55;;;;;;;14.90;100.00;96703.50;1035067;28;20053;-75
2023/06/24 01:53:23;;;;;;;5.47;4.07;;;;;;;14.91;100.00;96715.66;1035168;28;20030;-75
2023/06/24 01:53:57;;;;;;;6.57;4.60;;;;;;;14.85;100.00;96701.66;1042512;28;20068;-76
2023/06/24 01:54:28;;;;;;;5.32;3.95;;;;;;;14.89;100.00;96695.81;1027050;28;20062;-77
2023/06/24 01:54:58;;;;;;;6.25;4.38;;;;;;;14.91;100.00;96704.28;1039070;28;20028;-74
2023/06/24 01:55:29;;;;;;;7.60;4.45;;;;;;;14.93;100.00;96707.47;1039089;28;20084;-73
2023/06/24 01:55:59;;;;;;;5.45;4.35;;;;;;;14.91;100.00;96705.06;1043176;28;20025;-73
2023/06/24 01:56:30;;;;;;;5.85;4.45;;;;;;;14.91;100.00;96709.56;1039189;28;20030;-75
2023/06/24 01:57:00;;;;;;;7.57;4.60;;;;;;;14.90;100.00;96700.06;1034909;28;20431;-75
2023/06/24 01:57:31;;;;;;;5.97;4.15;;;;;;;14.93;100.00;96702.19;1041392;28;20081;-75
2023/06/24 01:58:01;;;;;;;6.18;4.60;;;;;;;14.87;100.00;96708.53;1031077;28;20404;-76
2023/06/24 01:58:32;;;;;;;7.20;4.93;;;;;;;14.87;100.00;96703.25;1051474;28;20658;-75
2023/06/24 01:59:03;;;;;;;6.28;4.57;;;;;;;14.90;100.00;96708.78;1034950;28;20392;-75
2023/06/24 01:59:37;;;;;;;6.50;4.63;;;;;;;14.92;100.00;96709.28;1043292;28;20036;-75
2023/06/24 02:00:09;;;;;;;6.95;5.00;;;;;;;14.94;100.00;96714.31;1039071;28;20026;-75
2023/06/24 02:00:40;;;;;;;6.95;4.78;;;;;;;14.88;100.00;96708.25;1039492;28;20044;-75
2023/06/24 02:01:10;;;;;;;8.27;5.03;;;;;;;14.84;100.00;96702.69;1047205;28;20854;-75
2023/06/24 02:01:41;;;;;;;7.13;5.43;;;;;;;14.68;100.00;96679.19;1039044;28;20454;-73
2023/06/24 02:02:12;;;;;;;6.20;4.38;;;;;;;14.89;100.00;96707.22;1035406;28;20140;-74
2023/06/24 02:02:42;;;;;;;6.35;4.65;;;;;;;14.87;100.00;96705.88;1042385;28;20344;-73
2023/06/24 02:03:13;;;;;;;6.03;4.70;;;;;;;14.91;100.00;96709.56;1039397;28;20036;-76
2023/06/24 02:03:43;;;;;;;6.22;4.25;;;;;;;14.91;100.00;96706.94;1035083;28;20044;-73
2023/06/24 02:04:14;;;;;;;6.68;4.53;;;;;;;14.85;100.00;96706.94;1045016;28;20017;-73
2023/06/24 02:04:44;;;;;;;5.13;4.38;;;;;;;14.87;100.00;96713.81;1046682;28;20027;-76
2023/06/24 02:05:15;;;;;;;6.70;5.65;;;;;;;14.89;100.00;96711.66;1035302;28;20025;-72
2023/06/24 02:05:46;;;;;;;5.05;4.45;;;;;;;14.84;100.00;96697.41;1039015;28;20025;-73
2023/06/24 02:06:17;;;;;;;9.32;5.10;;;;;;;14.91;100.00;96714.84;1035328;28;20025;-74
2023/06/24 02:06:47;;;;;;;7.10;4.22;;;;;;;14.89;100.00;96709.84;1043484;28;20443;-75
2023/06/24 02:07:18;;;;;;;7.97;5.28;;;;;;;14.92;100.00;96716.44;1038932;28;20037;-77
2023/06/24 02:07:49;;;;;;;5.88;4.38;;;;;;;14.87;100.00;96709.31;1038331;28;20037;-75
2023/06/24 02:08:20;;;;;;;6.80;4.22;;;;;;;14.85;100.00;96712.22;1038959;28;20021;-76
2023/06/24 02:08:53;;;;;;;5.72;4.57;;;;;;;14.94;100.00;96711.69;1047352;28;20067;-76
2023/06/24 02:09:24;;;;;;;8.73;4.72;;;;;;;14.92;100.00;96713.78;1041119;28;20041;-76
2023/06/24 02:09:54;;;;;;;5.97;4.43;;;;;;;14.90;100.00;96718.56;1042650;28;20048;-76
2023/06/24 02:10:25;;;;;;;5.65;4.28;;;;;;;14.90;100.00;96713.28;1030943;28;20100;-76
2023/06/24 02:10:55;;;;;;;7.47;4.85;;;;;;;14.92;100.00;96708.50;1034855;28;20030;-78
2023/06/24 02:11:26;;;;;;;6.47;4.40;;;;;;;14.88;100.00;96710.88;1038296;28;20021;-75
2023/06/24 02:11:57;;;;;;;7.57;5.00;;;;;;;14.91;100.00;96706.94;1030897;28;20874;-76
2023/06/24 02:12:27;;;;;;;6.05;5.20;;;;;;;14.91;100.00;96709.56;1038817;28;20052;-77
2023/06/24 02:12:58;;;;;;;5.68;4.35;;;;;;;14.85;100.00;96712.22;1041806;28;20501;-74
2023/06/24 02:13:32;;;;;;;6.15;4.88;;;;;;;14.89;100.00;96709.03;1042911;28;20032;-75
2023/06/24 02:14:03;;;;;;;6.20;4.78;;;;;;;14.90;100.00;96708.00;1034755;28;20524;-76
2023/06/24 02:14:34;;;;;;;6.68;4.47;;;;;;;14.91;100.00;96714.84;1035985;28;20029;-75
2023/06/24 02:15:06;;;;;;;6.50;4.60;;;;;;;14.93;100.00;96713.53;1043242;28;20036;-76
2023/06/24 02:15:37;;;;;;;5.32;4.47;;;;;;;14.92;100.00;96711.16;1035077;28;20036;-76
2023/06/24 02:16:08;;;;;;;5.30;4.43;;;;;;;14.93;100.00;96710.09;1038822;28;20025;-77
2023/06/24 02:16:40;;;;;;;6.18;4.40;;;;;;;14.91;100.00;96704.28;1043129;28;20579;-74
2023/06/24 02:17:10;;;;;;;8.40;5.15;;;;;;;14.87;100.00;96701.38;1038988;28;20052;-75
2023/06/24 02:17:41;;;;;;;6.82;5.00;;;;;;;14.91;100.00;96704.28;1039337;28;20475;-76
2023/06/24 02:18:11;;;;;;;5.53;4.45;;;;;;;14.92;100.00;96705.84;1042918;28;20020;-77
2023/06/24 02:18:43;;;;;;;10.60;4.72;;;;;;;14.94;100.00;96711.69;1039075;28;21040;-76
2023/06/24 02:19:17;;;;;;;7.93;4.68;;;;;;;14.95;100.00;96715.91;1030966;28;20022;-76
2023/06/24 02:19:48;;;;;;;7.57;4.75;;;;;;;14.91;100.00;96709.56;1031655;28;20061;-76
2023/06/24 02:20:18;;;;;;;6.20;4.72;;;;;;;14.92;100.00;96711.16;1040433;28;20025;-75
2023/06/24 02:20:49;;;;;;;7.82;4.43;;;;;;;14.89;100.00;96714.31;1043942;28;20032;-75
2023/06/24 02:21:19;;;;;;;8.23;4.53;;;;;;;14.94;100.00;96709.03;1046633;28;20024;-75
2023/06/24 02:21:51;;;;;;;5.88;4.38;;;;;;;14.91;100.00;96696.34;1051231;28;20062;-76
2023/06/24 02:22:22;;;;;;;6.07;4.75;;;;;;;14.95;100.00;96713.25;1038768;28;20025;-75
2023/06/24 02:22:53;;;;;;;8.07;4.93;;;;;;;14.97;100.00;96705.88;1030701;28;20089;-73
2023/06/24 02:23:23;;;;;;;8.60;5.15;;;;;;;14.98;100.00;96715.38;1039548;28;20017;-75
2023/06/24 02:23:54;;;;;;;5.72;4.30;;;;;;;15.00;100.00;96713.28;1038672;28;20017;-74
2023/06/24 02:24:26;;;;;;;7.28;4.35;;;;;;;14.99;100.00;96715.13;1038917;28;20121;-76
2023/06/24 02:24:56;;;;;;;7.75;4.50;;;;;;;14.97;100.00;96708.50;1039259;28;20040;-74
2023/06/24 02:25:27;;;;;;;5.53;4.72;;;;;;;14.92;100.00;96701.38;1035096;28;20040;-76
2023/06/24 02:25:57;;;;;;;7.20;4.63;;;;;;;14.99;100.00;96704.56;1039037;28;20442;-76
2023/06/24 02:26:28;;;;;;;5.30;4.28;;;;;;;14.98;100.00;96705.59;1039103;28;20691;-76
2023/06/24 02:26:58;;;;;;;7.68;4.60;;;;;;;14.99;100.00;96709.84;1042044;28;20103;-73
2023/06/24 02:27:28;;;;;;;7.10;4.65;;;;;;;14.98;100.00;96702.94;1035314;28;20077;-76
2023/06/24 02:27:59;;;;;;;6.32;4.75;;;;;;;15.01;100.00;96707.69;1039362;28;20025;-76
2023/06/24 02:28:29;;;;;;;15.90;5.05;;;;;;;14.98;100.00;96696.88;1043214;28;20017;-75
2023/06/24 02:29:00;;;;;;;9.00;4.85;;;;;;;15.02;100.00;96711.13;1039332;28;20040;-76
2023/06/24 02:29:30;;;;;;;5.40;4.05;;;;;;;15.01;100.00;96709.56;1035379;28;20407;-76
2023/06/24 02:30:02;;;;;;;5.78;4.50;;;;;;;14.98;100.00;96704.81;1043364;28;20050;-75
2023/06/24 02:30:34;;;;;;;12.43;5.30;;;;;;;14.97;100.00;96704.00;1043337;28;20056;-76
2023/06/24 02:31:05;;;;;;;7.93;4.20;;;;;;;15.00;100.00;96702.69;1042767;28;20059;-76
2023/06/24 02:31:35;;;;;;;8.07;4.28;;;;;;;15.02;100.00;96706.66;1039289;28;20419;-76